sensor_id;sensor_type;location;lat;lon;timestamp;pressure;altitude;pressure_sealevel;temperature
27715;BMP280;16051;53.024;8.630;2023-02-04T00:03:17;102842.53;;;5.94
27715;BMP280;16051;53.024;8.630;2023-02-04T00:07:28;102848.81;;;5.95
27715;BMP280;16051;53.024;8.630;2023-02-04T00:11:30;102854.66;;;5.93
27715;BMP280;16051;53.024;8.630;2023-02-04T00:15:33;102872.25;;;5.82
27715;BMP280;16051;53.024;8.630;2023-02-04T00:19:35;102871.53;;;5.92
27715;BMP280;16051;53.024;8.630;2023-02-04T00:23:39;102882.03;;;5.83
27715;BMP280;16051;53.024;8.630;2023-02-04T00:27:43;102882.88;;;5.90
27715;BMP280;16051;53.024;8.630;2023-02-04T00:31:45;102873.44;;;5.84
27715;BMP280;16051;53.024;8.630;2023-02-04T00:35:47;102880.88;;;5.80
27715;BMP280;16051;53.024;8.630;2023-02-04T00:39:51;102880.88;;;5.84
27715;BMP280;16051;53.024;8.630;2023-02-04T00:44:10;102894.91;;;5.68
27715;BMP280;16051;53.024;8.630;2023-02-04T00:48:13;102905.13;;;5.71
27715;BMP280;16051;53.024;8.630;2023-02-04T00:52:15;102911.78;;;5.70
27715;BMP280;16051;53.024;8.630;2023-02-04T00:56:19;102912.81;;;5.44
27715;BMP280;16051;53.024;8.630;2023-02-04T01:00:21;102926.88;;;5.36
27715;BMP280;16051;53.024;8.630;2023-02-04T01:04:23;102929.59;;;5.36
27715;BMP280;16051;53.024;8.630;2023-02-04T01:08:26;102944.84;;;5.30
27715;BMP280;16051;53.024;8.630;2023-02-04T01:12:51;102958.13;;;5.24
27715;BMP280;16051;53.024;8.630;2023-02-04T01:16:53;102962.03;;;5.23
27715;BMP280;16051;53.024;8.630;2023-02-04T01:20:55;102974.56;;;5.21
27715;BMP280;16051;53.024;8.630;2023-02-04T01:24:57;102985.94;;;5.26
27715;BMP280;16051;53.024;8.630;2023-02-04T01:29:01;103004.31;;;5.22
27715;BMP280;16051;53.024;8.630;2023-02-04T01:33:03;102999.97;;;5.21
27715;BMP280;16051;53.024;8.630;2023-02-04T01:37:05;103020.31;;;5.17
27715;BMP280;16051;53.024;8.630;2023-02-04T01:41:07;103020.31;;;5.17
27715;BMP280;16051;53.024;8.630;2023-02-04T01:45:11;103033.53;;;5.08
27715;BMP280;16051;53.024;8.630;2023-02-04T01:49:13;103040.56;;;5.05
27715;BMP280;16051;53.024;8.630;2023-02-04T01:53:20;103055.84;;;5.06
27715;BMP280;16051;53.024;8.630;2023-02-04T01:57:23;103051.06;;;5.00
27715;BMP280;16051;53.024;8.630;2023-02-04T02:01:38;103059.66;;;4.94
27715;BMP280;16051;53.024;8.630;2023-02-04T02:05:44;103085.34;;;4.83
27715;BMP280;16051;53.024;8.630;2023-02-04T02:09:47;103091.97;;;4.82
27715;BMP280;16051;53.024;8.630;2023-02-04T02:13:49;103091.09;;;4.74
27715;BMP280;16051;53.024;8.630;2023-02-04T02:17:53;103101.78;;;4.83
27715;BMP280;16051;53.024;8.630;2023-02-04T02:22:04;103113.06;;;4.78
27715;BMP280;16051;53.024;8.630;2023-02-04T02:26:09;103121.19;;;4.71
27715;BMP280;16051;53.024;8.630;2023-02-04T02:30:46;103134.75;;;4.60
27715;BMP280;16051;53.024;8.630;2023-02-04T02:34:49;103148.09;;;4.62
27715;BMP280;16051;53.024;8.630;2023-02-04T02:38:56;103161.28;;;4.56
27715;BMP280;16051;53.024;8.630;2023-02-04T02:43:01;103149.47;;;4.48
27715;BMP280;16051;53.024;8.630;2023-02-04T02:47:03;103148.69;;;4.48
27715;BMP280;16051;53.024;8.630;2023-02-04T02:51:05;103160.09;;;4.54
27715;BMP280;16051;53.024;8.630;2023-02-04T02:55:13;103146.97;;;4.36
27715;BMP280;16051;53.024;8.630;2023-02-04T02:59:19;103139.81;;;4.28
27715;BMP280;16051;53.024;8.630;2023-02-04T03:03:24;103149.19;;;4.27
27715;BMP280;16051;53.024;8.630;2023-02-04T03:07:27;103165.25;;;4.29
27715;BMP280;16051;53.024;8.630;2023-02-04T03:11:29;103181.44;;;4.15
27715;BMP280;16051;53.024;8.630;2023-02-04T03:15:34;103174.28;;;4.07
27715;BMP280;16051;53.024;8.630;2023-02-04T03:19:37;103171.84;;;4.02
27715;BMP280;16051;53.024;8.630;2023-02-04T03:23:40;103171.22;;;3.85
27715;BMP280;16051;53.024;8.630;2023-02-04T03:27:47;103187.88;;;3.77
27715;BMP280;16051;53.024;8.630;2023-02-04T03:31:51;103197.94;;;3.73
27715;BMP280;16051;53.024;8.630;2023-02-04T03:35:55;103213.88;;;3.67
27715;BMP280;16051;53.024;8.630;2023-02-04T03:39:57;103221.66;;;3.65
27715;BMP280;16051;53.024;8.630;2023-02-04T03:43:59;103235.63;;;3.60
27715;BMP280;16051;53.024;8.630;2023-02-04T03:48:03;103233.56;;;3.54
27715;BMP280;16051;53.024;8.630;2023-02-04T03:52:05;103244.06;;;3.52
27715;BMP280;16051;53.024;8.630;2023-02-04T03:56:40;103245.50;;;3.45
27715;BMP280;16051;53.024;8.630;2023-02-04T04:00:43;103255.50;;;3.38
27715;BMP280;16051;53.024;8.630;2023-02-04T04:04:46;103260.75;;;3.27
27715;BMP280;16051;53.024;8.630;2023-02-04T04:08:48;103275.44;;;3.19
27715;BMP280;16051;53.024;8.630;2023-02-04T04:12:51;103290.94;;;3.15
27715;BMP280;16051;53.024;8.630;2023-02-04T04:16:53;103293.97;;;3.10
27715;BMP280;16051;53.024;8.630;2023-02-04T04:21:06;103289.16;;;3.04
27715;BMP280;16051;53.024;8.630;2023-02-04T04:25:09;103307.84;;;3.02
27715;BMP280;16051;53.024;8.630;2023-02-04T04:29:11;103310.56;;;3.02
27715;BMP280;16051;53.024;8.630;2023-02-04T04:33:13;103313.28;;;3.02
27715;BMP280;16051;53.024;8.630;2023-02-04T04:37:16;103323.28;;;2.94
27715;BMP280;16051;53.024;8.630;2023-02-04T04:41:18;103328.38;;;2.95
27715;BMP280;16051;53.024;8.630;2023-02-04T04:45:21;103335.78;;;2.95
27715;BMP280;16051;53.024;8.630;2023-02-04T04:49:41;103334.50;;;2.89
27715;BMP280;16051;53.024;8.630;2023-02-04T04:53:45;103332.38;;;2.82
27715;BMP280;16051;53.024;8.630;2023-02-04T04:57:47;103353.34;;;2.78
27715;BMP280;16051;53.024;8.630;2023-02-04T05:01:49;103354.84;;;2.76
27715;BMP280;16051;53.024;8.630;2023-02-04T05:05:51;103360.22;;;2.72
27715;BMP280;16051;53.024;8.630;2023-02-04T05:09:55;103365.69;;;2.72
27715;BMP280;16051;53.024;8.630;2023-02-04T05:14:01;103385.16;;;2.71
27715;BMP280;16051;53.024;8.630;2023-02-04T05:18:03;103377.41;;;2.73
27715;BMP280;16051;53.024;8.630;2023-02-04T05:22:05;103392.97;;;2.72
27715;BMP280;16051;53.024;8.630;2023-02-04T05:26:09;103398.81;;;2.71
27715;BMP280;16051;53.024;8.630;2023-02-04T05:30:12;103390.16;;;2.69
27715;BMP280;16051;53.024;8.630;2023-02-04T05:34:14;103402.22;;;2.68
27715;BMP280;16051;53.024;8.630;2023-02-04T05:38:24;103399.41;;;2.64
27715;BMP280;16051;53.024;8.630;2023-02-04T05:42:27;103390.53;;;2.67
27715;BMP280;16051;53.024;8.630;2023-02-04T05:46:29;103389.44;;;2.72
27715;BMP280;16051;53.024;8.630;2023-02-04T05:50:31;103397.03;;;2.63
27715;BMP280;16051;53.024;8.630;2023-02-04T05:54:33;103420.63;;;2.55
27715;BMP280;16051;53.024;8.630;2023-02-04T05:58:37;103427.22;;;2.54
27715;BMP280;16051;53.024;8.630;2023-02-04T06:02:56;103441.34;;;2.56
27715;BMP280;16051;53.024;8.630;2023-02-04T06:06:58;103440.97;;;2.58
27715;BMP280;16051;53.024;8.630;2023-02-04T06:11:01;103440.63;;;2.59
27715;BMP280;16051;53.024;8.630;2023-02-04T06:15:06;103439.66;;;2.52
27715;BMP280;16051;53.024;8.630;2023-02-04T06:19:09;103452.50;;;2.51
27715;BMP280;16051;53.024;8.630;2023-02-04T06:23:11;103465.81;;;2.53
27715;BMP280;16051;53.024;8.630;2023-02-04T06:27:13;103476.25;;;2.51
27715;BMP280;16051;53.024;8.630;2023-02-04T06:31:20;103480.91;;;2.50
27715;BMP280;16051;53.024;8.630;2023-02-04T06:35:23;103478.91;;;2.47
27715;BMP280;16051;53.024;8.630;2023-02-04T06:39:25;103466.38;;;2.30
27715;BMP280;16051;53.024;8.630;2023-02-04T06:43:27;103473.97;;;2.37
27715;BMP280;16051;53.024;8.630;2023-02-04T06:47:30;103483.53;;;2.31
27715;BMP280;16051;53.024;8.630;2023-02-04T06:51:43;103489.34;;;2.29
27715;BMP280;16051;53.024;8.630;2023-02-04T06:55:46;103493.78;;;2.22
27715;BMP280;16051;53.024;8.630;2023-02-04T06:59:48;103508.13;;;2.19
27715;BMP280;16051;53.024;8.630;2023-02-04T07:03:51;103520.88;;;2.15
27715;BMP280;16051;53.024;8.630;2023-02-04T07:08:24;103535.91;;;2.09
27715;BMP280;16051;53.024;8.630;2023-02-04T07:12:26;103541.59;;;2.04
27715;BMP280;16051;53.024;8.630;2023-02-04T07:16:28;103540.78;;;2.03
27715;BMP280;16051;53.024;8.630;2023-02-04T07:20:32;103540.78;;;2.03
27715;BMP280;16051;53.024;8.630;2023-02-04T07:24:34;103546.25;;;2.03
27715;BMP280;16051;53.024;8.630;2023-02-04T07:28:36;103542.38;;;2.04
27715;BMP280;16051;53.024;8.630;2023-02-04T07:32:40;103553.75;;;2.06
27715;BMP280;16051;53.024;8.630;2023-02-04T07:36:44;103564.22;;;2.04
27715;BMP280;16051;53.024;8.630;2023-02-04T07:40:46;103574.00;;;2.05
27715;BMP280;16051;53.024;8.630;2023-02-04T07:44:48;103572.84;;;2.06
27715;BMP280;16051;53.024;8.630;2023-02-04T07:48:50;103579.09;;;2.07
27715;BMP280;16051;53.024;8.630;2023-02-04T07:52:53;103590.69;;;2.04
27715;BMP280;16051;53.024;8.630;2023-02-04T07:56:56;103593.19;;;2.09
27715;BMP280;16051;53.024;8.630;2023-02-04T08:00:58;103600.66;;;2.12
27715;BMP280;16051;53.024;8.630;2023-02-04T08:05:01;103606.56;;;2.14
27715;BMP280;16051;53.024;8.630;2023-02-04T08:09:04;103609.75;;;2.28
27715;BMP280;16051;53.024;8.630;2023-02-04T08:13:06;103603.00;;;2.37
27715;BMP280;16051;53.024;8.630;2023-02-04T08:17:08;103612.28;;;2.48
27715;BMP280;16051;53.024;8.630;2023-02-04T08:21:11;103619.88;;;2.55
27715;BMP280;16051;53.024;8.630;2023-02-04T08:25:14;103626.78;;;2.65
27715;BMP280;16051;53.024;8.630;2023-02-04T08:29:17;103623.00;;;2.69
27715;BMP280;16051;53.024;8.630;2023-02-04T08:33:19;103634.72;;;2.70
27715;BMP280;16051;53.024;8.630;2023-02-04T08:37:23;103644.81;;;2.81
27715;BMP280;16051;53.024;8.630;2023-02-04T08:41:26;103645.50;;;2.78
27715;BMP280;16051;53.024;8.630;2023-02-04T08:45:28;103657.41;;;2.86
27715;BMP280;16051;53.024;8.630;2023-02-04T08:49:30;103654.63;;;2.98
27715;BMP280;16051;53.024;8.630;2023-02-04T08:53:33;103668.78;;;2.88
27715;BMP280;16051;53.024;8.630;2023-02-04T08:57:36;103672.75;;;2.90
27715;BMP280;16051;53.024;8.630;2023-02-04T09:01:38;103688.28;;;3.02
27715;BMP280;16051;53.024;8.630;2023-02-04T09:05:41;103688.94;;;3.11
27715;BMP280;16051;53.024;8.630;2023-02-04T09:09:53;103692.16;;;3.29
27715;BMP280;16051;53.024;8.630;2023-02-04T09:13:57;103701.06;;;3.41
27715;BMP280;16051;53.024;8.630;2023-02-04T09:17:59;103709.44;;;3.33
27715;BMP280;16051;53.024;8.630;2023-02-04T09:22:11;103699.38;;;3.21
27715;BMP280;16051;53.024;8.630;2023-02-04T09:26:13;103714.56;;;3.34
27715;BMP280;16051;53.024;8.630;2023-02-04T09:30:19;103705.63;;;3.65
27715;BMP280;16051;53.024;8.630;2023-02-04T09:34:23;103710.09;;;3.73
27715;BMP280;16051;53.024;8.630;2023-02-04T09:38:25;103703.47;;;4.06
27715;BMP280;16051;53.024;8.630;2023-02-04T09:42:51;103712.69;;;4.32
27715;BMP280;16051;53.024;8.630;2023-02-04T09:46:57;103708.91;;;4.56
27715;BMP280;16051;53.024;8.630;2023-02-04T09:51:05;103712.28;;;4.50
27715;BMP280;16051;53.024;8.630;2023-02-04T09:55:12;103726.44;;;4.71
27715;BMP280;16051;53.024;8.630;2023-02-04T09:59:17;103722.28;;;4.96
27715;BMP280;16051;53.024;8.630;2023-02-04T10:03:21;103726.00;;;5.45
27715;BMP280;16051;53.024;8.630;2023-02-04T10:07:24;103731.72;;;6.05
27715;BMP280;16051;53.024;8.630;2023-02-04T10:11:31;103741.13;;;5.81
27715;BMP280;16051;53.024;8.630;2023-02-04T10:15:34;103749.63;;;5.54
27715;BMP280;16051;53.024;8.630;2023-02-04T10:19:38;103750.13;;;5.59
27715;BMP280;16051;53.024;8.630;2023-02-04T10:23:45;103751.97;;;5.74
27715;BMP280;16051;53.024;8.630;2023-02-04T10:27:51;103749.47;;;5.66
27715;BMP280;16051;53.024;8.630;2023-02-04T10:31:53;103754.72;;;5.97
27715;BMP280;16051;53.024;8.630;2023-02-04T10:35:57;103756.03;;;6.29
27715;BMP280;16051;53.024;8.630;2023-02-04T10:39:59;103754.94;;;6.60
27715;BMP280;16051;53.024;8.630;2023-02-04T10:44:06;103765.47;;;6.84
27715;BMP280;16051;53.024;8.630;2023-02-04T10:48:15;103757.88;;;7.04
27715;BMP280;16051;53.024;8.630;2023-02-04T10:52:33;103760.66;;;7.08
27715;BMP280;16051;53.024;8.630;2023-02-04T10:56:35;103763.84;;;7.13
27715;BMP280;16051;53.024;8.630;2023-02-04T11:00:40;103751.81;;;7.25
27715;BMP280;16051;53.024;8.630;2023-02-04T11:04:42;103745.59;;;7.31
27715;BMP280;16051;53.024;8.630;2023-02-04T11:08:46;103747.84;;;7.56
27715;BMP280;16051;53.024;8.630;2023-02-04T11:13:02;103747.50;;;7.64
27715;BMP280;16051;53.024;8.630;2023-02-04T11:17:05;103757.97;;;7.48
27715;BMP280;16051;53.024;8.630;2023-02-04T11:21:20;103743.72;;;7.39
27715;BMP280;16051;53.024;8.630;2023-02-04T11:25:35;103744.69;;;7.57
27715;BMP280;16051;53.024;8.630;2023-02-04T11:29:39;103752.72;;;7.73
27715;BMP280;16051;53.024;8.630;2023-02-04T11:33:46;103749.03;;;7.58
27715;BMP280;16051;53.024;8.630;2023-02-04T11:37:48;103745.44;;;7.17
27715;BMP280;16051;53.024;8.630;2023-02-04T11:41:52;103747.31;;;7.10
27715;BMP280;16051;53.024;8.630;2023-02-04T11:46:03;103746.44;;;7.02
27715;BMP280;16051;53.024;8.630;2023-02-04T11:50:32;103742.75;;;6.91
27715;BMP280;16051;53.024;8.630;2023-02-04T11:54:35;103743.22;;;6.67
27715;BMP280;16051;53.024;8.630;2023-02-04T11:58:39;103743.16;;;6.60
27715;BMP280;16051;53.024;8.630;2023-02-04T12:03:04;103753.72;;;6.58
27715;BMP280;16051;53.024;8.630;2023-02-04T12:07:12;103758.47;;;6.61
27715;BMP280;16051;53.024;8.630;2023-02-04T12:11:27;103763.25;;;6.67
27715;BMP280;16051;53.024;8.630;2023-02-04T12:15:34;103753.56;;;6.77
27715;BMP280;16051;53.024;8.630;2023-02-04T12:19:36;103755.91;;;6.75
27715;BMP280;16051;53.024;8.630;2023-02-04T12:23:38;103761.78;;;6.73
27715;BMP280;16051;53.024;8.630;2023-02-04T12:28:04;103765.09;;;6.86
27715;BMP280;16051;53.024;8.630;2023-02-04T12:32:08;103762.50;;;6.70
27715;BMP280;16051;53.024;8.630;2023-02-04T12:36:10;103762.16;;;6.72
27715;BMP280;16051;53.024;8.630;2023-02-04T12:40:15;103760.75;;;6.85
27715;BMP280;16051;53.024;8.630;2023-02-04T12:44:18;103774.09;;;6.83
27715;BMP280;16051;53.024;8.630;2023-02-04T12:48:21;103768.38;;;6.99
27715;BMP280;16051;53.024;8.630;2023-02-04T12:52:23;103768.50;;;7.09
27715;BMP280;16051;53.024;8.630;2023-02-04T12:56:25;103761.91;;;7.14
27715;BMP280;16051;53.024;8.630;2023-02-04T13:00:27;103760.94;;;6.99
27715;BMP280;16051;53.024;8.630;2023-02-04T13:04:31;103756.16;;;6.92
27715;BMP280;16051;53.024;8.630;2023-02-04T13:08:33;103756.19;;;6.96
27715;BMP280;16051;53.024;8.630;2023-02-04T13:12:35;103755.91;;;7.05
27715;BMP280;16051;53.024;8.630;2023-02-04T13:16:37;103762.13;;;6.98
27715;BMP280;16051;53.024;8.630;2023-02-04T13:20:51;103768.38;;;6.99
27715;BMP280;16051;53.024;8.630;2023-02-04T13:24:53;103766.06;;;7.01
27715;BMP280;16051;53.024;8.630;2023-02-04T13:28:56;103770.28;;;6.94
27715;BMP280;16051;53.024;8.630;2023-02-04T13:32:58;103768.34;;;6.95
27715;BMP280;16051;53.024;8.630;2023-02-04T13:37:02;103768.69;;;6.90
27715;BMP280;16051;53.024;8.630;2023-02-04T13:41:05;103762.63;;;6.77
27715;BMP280;16051;53.024;8.630;2023-02-04T13:45:09;103774.41;;;6.78
27715;BMP280;16051;53.024;8.630;2023-02-04T13:49:12;103772.13;;;6.83
27715;BMP280;16051;53.024;8.630;2023-02-04T13:53:16;103765.97;;;6.93
27715;BMP280;16051;53.024;8.630;2023-02-04T13:57:18;103773.66;;;7.11
27715;BMP280;16051;53.024;8.630;2023-02-04T14:01:20;103773.16;;;7.02
27715;BMP280;16051;53.024;8.630;2023-02-04T14:05:23;103772.50;;;7.12
27715;BMP280;16051;53.024;8.630;2023-02-04T14:09:27;103780.88;;;7.22
27715;BMP280;16051;53.024;8.630;2023-02-04T14:13:30;103781.19;;;7.17
27715;BMP280;16051;53.024;8.630;2023-02-04T14:17:32;103783.09;;;7.13
27715;BMP280;16051;53.024;8.630;2023-02-04T14:21:35;103788.72;;;6.90
27715;BMP280;16051;53.024;8.630;2023-02-04T14:25:39;103787.34;;;6.77
27715;BMP280;16051;53.024;8.630;2023-02-04T14:29:41;103774.09;;;6.83
27715;BMP280;16051;53.024;8.630;2023-02-04T14:33:43;103771.09;;;6.65
27715;BMP280;16051;53.024;8.630;2023-02-04T14:38:01;103780.72;;;6.52
27715;BMP280;16051;53.024;8.630;2023-02-04T14:42:04;103790.78;;;6.44
27715;BMP280;16051;53.024;8.630;2023-02-04T14:46:07;103784.88;;;6.42
27715;BMP280;16051;53.024;8.630;2023-02-04T14:50:12;103791.34;;;6.54
27715;BMP280;16051;53.024;8.630;2023-02-04T14:54:17;103794.19;;;6.61
27715;BMP280;16051;53.024;8.630;2023-02-04T14:58:21;103791.19;;;6.73
27715;BMP280;16051;53.024;8.630;2023-02-04T15:02:23;103800.53;;;6.65
27715;BMP280;16051;53.024;8.630;2023-02-04T15:06:25;103794.59;;;6.63
27715;BMP280;16051;53.024;8.630;2023-02-04T15:10:27;103799.94;;;6.52
27715;BMP280;16051;53.024;8.630;2023-02-04T15:14:31;103806.16;;;6.49
27715;BMP280;16051;53.024;8.630;2023-02-04T15:18:40;103817.69;;;6.58
27715;BMP280;16051;53.024;8.630;2023-02-04T15:22:53;103811.25;;;6.47
27715;BMP280;16051;53.024;8.630;2023-02-04T15:26:56;103813.50;;;6.41
27715;BMP280;16051;53.024;8.630;2023-02-04T15:30:59;103809.00;;;6.30
27715;BMP280;16051;53.024;8.630;2023-02-04T15:35:09;103802.06;;;6.13
27715;BMP280;16051;53.024;8.630;2023-02-04T15:39:11;103801.72;;;6.15
27715;BMP280;16051;53.024;8.630;2023-02-04T15:43:13;103796.75;;;6.01
27715;BMP280;16051;53.024;8.630;2023-02-04T15:47:17;103804.50;;;5.96
27715;BMP280;16051;53.024;8.630;2023-02-04T15:51:28;103812.69;;;5.92
27715;BMP280;16051;53.024;8.630;2023-02-04T15:55:30;103804.59;;;5.80
27715;BMP280;16051;53.024;8.630;2023-02-04T15:59:32;103803.00;;;5.79
27715;BMP280;16051;53.024;8.630;2023-02-04T16:03:48;103791.19;;;5.75
27715;BMP280;16051;53.024;8.630;2023-02-04T16:07:56;103796.22;;;5.73
27715;BMP280;16051;53.024;8.630;2023-02-04T16:11:58;103791.00;;;5.64
27715;BMP280;16051;53.024;8.630;2023-02-04T16:16:04;103782.06;;;5.48
27715;BMP280;16051;53.024;8.630;2023-02-04T16:20:09;103795.63;;;5.41
27715;BMP280;16051;53.024;8.630;2023-02-04T16:24:12;103795.56;;;5.37
27715;BMP280;16051;53.024;8.630;2023-02-04T16:28:15;103801.84;;;5.38
27715;BMP280;16051;53.024;8.630;2023-02-04T16:32:18;103799.91;;;5.38
27715;BMP280;16051;53.024;8.630;2023-02-04T16:36:29;103808.69;;;5.28
27715;BMP280;16051;53.024;8.630;2023-02-04T16:40:33;103807.53;;;5.29
27715;BMP280;16051;53.024;8.630;2023-02-04T16:44:35;103810.13;;;5.22
27715;BMP280;16051;53.024;8.630;2023-02-04T16:48:50;103812.31;;;5.13
27715;BMP280;16051;53.024;8.630;2023-02-04T16:52:54;103810.25;;;5.10
27715;BMP280;16051;53.024;8.630;2023-02-04T16:56:56;103814.53;;;5.27
27715;BMP280;16051;53.024;8.630;2023-02-04T17:00:59;103823.53;;;5.08
27715;BMP280;16051;53.024;8.630;2023-02-04T17:05:02;103824.84;;;5.14
27715;BMP280;16051;53.024;8.630;2023-02-04T17:09:06;103828.75;;;5.13
27715;BMP280;16051;53.024;8.630;2023-02-04T17:13:09;103833.44;;;5.13
27715;BMP280;16051;53.024;8.630;2023-02-04T17:17:21;103834.94;;;5.10
27715;BMP280;16051;53.024;8.630;2023-02-04T17:21:25;103837.81;;;4.98
27715;BMP280;16051;53.024;8.630;2023-02-04T17:25:29;103837.16;;;5.05
27715;BMP280;16051;53.024;8.630;2023-02-04T17:29:31;103831.88;;;4.96
27715;BMP280;16051;53.024;8.630;2023-02-04T17:33:36;103832.75;;;5.00
27715;BMP280;16051;53.024;8.630;2023-02-04T17:37:38;103845.16;;;4.94
27715;BMP280;16051;53.024;8.630;2023-02-04T17:41:42;103839.59;;;4.90
27715;BMP280;16051;53.024;8.630;2023-02-04T17:45:59;103832.59;;;4.93
27715;BMP280;16051;53.024;8.630;2023-02-04T17:50:03;103832.91;;;4.88
27715;BMP280;16051;53.024;8.630;2023-02-04T17:54:08;103822.63;;;4.85
27715;BMP280;16051;53.024;8.630;2023-02-04T17:58:16;103823.50;;;4.89
27715;BMP280;16051;53.024;8.630;2023-02-04T18:02:25;103832.34;;;4.82
27715;BMP280;16051;53.024;8.630;2023-02-04T18:06:43;103826.25;;;4.89
27715;BMP280;16051;53.024;8.630;2023-02-04T18:10:49;103827.75;;;4.86
27715;BMP280;16051;53.024;8.630;2023-02-04T18:15:22;103828.47;;;4.83
27715;BMP280;16051;53.024;8.630;2023-02-04T18:19:28;103834.59;;;4.77
27715;BMP280;16051;53.024;8.630;2023-02-04T18:23:32;103833.47;;;4.62
27715;BMP280;16051;53.024;8.630;2023-02-04T18:27:37;103834.44;;;4.54
27715;BMP280;16051;53.024;8.630;2023-02-04T18:31:49;103836.22;;;4.46
27715;BMP280;16051;53.024;8.630;2023-02-04T18:36:01;103842.50;;;4.47
27715;BMP280;16051;53.024;8.630;2023-02-04T18:40:22;103849.91;;;4.31
27715;BMP280;16051;53.024;8.630;2023-02-04T18:44:36;103849.47;;;4.29
27715;BMP280;16051;53.024;8.630;2023-02-04T18:49:17;103850.53;;;4.24
27715;BMP280;16051;53.024;8.630;2023-02-04T18:53:23;103845.34;;;4.19
27715;BMP280;16051;53.024;8.630;2023-02-04T18:57:34;103839.41;;;4.17
27715;BMP280;16051;53.024;8.630;2023-02-04T19:01:38;103842.13;;;4.02
27715;BMP280;16051;53.024;8.630;2023-02-04T19:05:49;103860.03;;;3.99
27715;BMP280;16051;53.024;8.630;2023-02-04T19:09:55;103853.25;;;3.93
27715;BMP280;16051;53.024;8.630;2023-02-04T19:14:17;103860.47;;;3.85
27715;BMP280;16051;53.024;8.630;2023-02-04T19:18:25;103854.34;;;3.76
27715;BMP280;16051;53.024;8.630;2023-02-04T19:22:41;103848.00;;;3.72
27715;BMP280;16051;53.024;8.630;2023-02-04T19:26:53;103844.28;;;3.65
27715;BMP280;16051;53.024;8.630;2023-02-04T19:31:06;103845.22;;;3.57
27715;BMP280;16051;53.024;8.630;2023-02-04T19:35:19;103845.72;;;3.46
27715;BMP280;16051;53.024;8.630;2023-02-04T19:39:33;103847.78;;;3.37
27715;BMP280;16051;53.024;8.630;2023-02-04T19:43:38;103852.34;;;3.33
27715;BMP280;16051;53.024;8.630;2023-02-04T19:47:42;103845.66;;;3.19
27715;BMP280;16051;53.024;8.630;2023-02-04T19:51:47;103849.47;;;3.14
27715;BMP280;16051;53.024;8.630;2023-02-04T19:55:59;103859.69;;;3.05
27715;BMP280;16051;53.024;8.630;2023-02-04T20:00:01;103847.66;;;2.94
27715;BMP280;16051;53.024;8.630;2023-02-04T20:04:08;103842.56;;;2.92
27715;BMP280;16051;53.024;8.630;2023-02-04T20:08:42;103832.31;;;2.77
27715;BMP280;16051;53.024;8.630;2023-02-04T20:12:45;103838.81;;;2.73
27715;BMP280;16051;53.024;8.630;2023-02-04T20:16:51;103840.28;;;2.70
27715;BMP280;16051;53.024;8.630;2023-02-04T20:20:54;103832.00;;;2.67
27715;BMP280;16051;53.024;8.630;2023-02-04T20:25:19;103829.72;;;2.44
27715;BMP280;16051;53.024;8.630;2023-02-04T20:29:27;103813.81;;;2.34
27715;BMP280;16051;53.024;8.630;2023-02-04T20:33:43;103817.34;;;2.35
27715;BMP280;16051;53.024;8.630;2023-02-04T20:38:16;103813.00;;;2.34
27715;BMP280;16051;53.024;8.630;2023-02-04T20:42:45;103823.44;;;2.32
27715;BMP280;16051;53.024;8.630;2023-02-04T20:46:48;103819.03;;;2.27
27715;BMP280;16051;53.024;8.630;2023-02-04T20:50:52;103821.53;;;2.20
27715;BMP280;16051;53.024;8.630;2023-02-04T20:54:56;103816.41;;;2.19
27715;BMP280;16051;53.024;8.630;2023-02-04T20:59:22;103808.41;;;2.14
27715;BMP280;16051;53.024;8.630;2023-02-04T21:03:33;103826.63;;;2.10
27715;BMP280;16051;53.024;8.630;2023-02-04T21:07:35;103823.78;;;2.06
27715;BMP280;16051;53.024;8.630;2023-02-04T21:11:37;103822.88;;;2.02
27715;BMP280;16051;53.024;8.630;2023-02-04T21:15:39;103819.91;;;1.95
27715;BMP280;16051;53.024;8.630;2023-02-04T21:19:43;103802.72;;;1.94
27715;BMP280;16051;53.024;8.630;2023-02-04T21:23:45;103804.41;;;1.87
27715;BMP280;16051;53.024;8.630;2023-02-04T21:27:47;103801.44;;;1.80
27715;BMP280;16051;53.024;8.630;2023-02-04T21:31:49;103808.22;;;1.74
27715;BMP280;16051;53.024;8.630;2023-02-04T21:35:54;103813.13;;;1.68
27715;BMP280;16051;53.024;8.630;2023-02-04T21:39:56;103805.25;;;1.67
27715;BMP280;16051;53.024;8.630;2023-02-04T21:43:58;103800.84;;;1.62
27715;BMP280;16051;53.024;8.630;2023-02-04T21:48:00;103810.13;;;1.61
27715;BMP280;16051;53.024;8.630;2023-02-04T21:52:04;103794.78;;;1.57
27715;BMP280;16051;53.024;8.630;2023-02-04T21:56:07;103785.09;;;1.47
27715;BMP280;16051;53.024;8.630;2023-02-04T22:00:12;103790.44;;;1.43
27715;BMP280;16051;53.024;8.630;2023-02-04T22:04:14;103794.63;;;1.41
27715;BMP280;16051;53.024;8.630;2023-02-04T22:08:18;103793.69;;;1.37
27715;BMP280;16051;53.024;8.630;2023-02-04T22:12:37;103795.28;;;1.38
27715;BMP280;16051;53.024;8.630;2023-02-04T22:16:39;103792.91;;;1.36
27715;BMP280;16051;53.024;8.630;2023-02-04T22:20:42;103794.69;;;1.32
27715;BMP280;16051;53.024;8.630;2023-02-04T22:24:45;103791.38;;;1.27
27715;BMP280;16051;53.024;8.630;2023-02-04T22:28:48;103794.44;;;1.25
27715;BMP280;16051;53.024;8.630;2023-02-04T22:32:50;103783.88;;;1.24
27715;BMP280;16051;53.024;8.630;2023-02-04T22:36:52;103785.78;;;1.23
27715;BMP280;16051;53.024;8.630;2023-02-04T22:40:56;103783.41;;;1.22
27715;BMP280;16051;53.024;8.630;2023-02-04T22:44:58;103780.56;;;1.18
27715;BMP280;16051;53.024;8.630;2023-02-04T22:49:02;103777.72;;;1.15
27715;BMP280;16051;53.024;8.630;2023-02-04T22:53:05;103783.03;;;1.11
27715;BMP280;16051;53.024;8.630;2023-02-04T22:57:09;103782.47;;;1.18
27715;BMP280;16051;53.024;8.630;2023-02-04T23:01:11;103784.75;;;1.16
27715;BMP280;16051;53.024;8.630;2023-02-04T23:05:13;103789.53;;;1.19
27715;BMP280;16051;53.024;8.630;2023-02-04T23:09:49;103774.31;;;1.18
27715;BMP280;16051;53.024;8.630;2023-02-04T23:13:53;103785.06;;;1.14
27715;BMP280;16051;53.024;8.630;2023-02-04T23:17:55;103784.59;;;1.12
27715;BMP280;16051;53.024;8.630;2023-02-04T23:21:57;103769.41;;;1.11
27715;BMP280;16051;53.024;8.630;2023-02-04T23:26:00;103771.91;;;1.16
27715;BMP280;16051;53.024;8.630;2023-02-04T23:30:06;103767.63;;;1.15
27715;BMP280;16051;53.024;8.630;2023-02-04T23:34:10;103768.75;;;1.14
27715;BMP280;16051;53.024;8.630;2023-02-04T23:38:12;103769.41;;;1.11